Sundance, Wyoming
Current Conditions -  °F | °C
As of 1:55 PM on Tuesday 25 Nov 2014 (Local Time) from KSPF Reporting Station
Light Rain Light Rain  
Wind Chill: 23°   Ceiling: 1300
Heat Index: 34°   Visibility: 10mi
Dew Point: 30°   Wind: 18mph
Humidity: 87%   Direction: 310°NW
Pressure: 29.81"   Gusts: 30mph
Location:  44.41°N, 104.38°W
Report Text: KSPF 252055Z AUTO 31016G26KT 10SM -RA BKN013 OVC019 01/M01 A2981 RMK AO2
Loading
Personal Weather Stations






























Interactive Weather Map New forecast layout! Learn more

10-Day Weather Forecast

Advertisements
Track Severe Weather on mobile